sensor_id;sensor_type;location;lat;lon;timestamp;P1;durP1;ratioP1;P2;durP2;ratioP2
51828;SDS011;37881;48.024;8.774;2022-11-20T00:01:20;43.20;;;13.83;;
51828;SDS011;37881;48.024;8.774;2022-11-20T00:03:48;74.72;;;13.88;;
51828;SDS011;37881;48.024;8.774;2022-11-20T00:06:17;36.33;;;14.00;;
51828;SDS011;37881;48.024;8.774;2022-11-20T00:08:45;40.25;;;13.13;;
51828;SDS011;37881;48.024;8.774;2022-11-20T00:11:13;64.22;;;15.07;;
51828;SDS011;37881;48.024;8.774;2022-11-20T00:13:42;66.80;;;16.07;;
51828;SDS011;37881;48.024;8.774;2022-11-20T00:16:10;51.83;;;13.65;;
51828;SDS011;37881;48.024;8.774;2022-11-20T00:18:38;56.55;;;13.60;;
51828;SDS011;37881;48.024;8.774;2022-11-20T00:21:15;43.92;;;14.10;;
51828;SDS011;37881;48.024;8.774;2022-11-20T00:23:44;148.52;;;15.50;;
51828;SDS011;37881;48.024;8.774;2022-11-20T00:26:12;88.17;;;13.60;;
51828;SDS011;37881;48.024;8.774;2022-11-20T00:28:40;118.40;;;14.13;;
51828;SDS011;37881;48.024;8.774;2022-11-20T00:31:09;38.90;;;12.35;;
51828;SDS011;37881;48.024;8.774;2022-11-20T00:33:41;66.93;;;12.63;;
51828;SDS011;37881;48.024;8.774;2022-11-20T00:36:10;93.75;;;14.70;;
51828;SDS011;37881;48.024;8.774;2022-11-20T00:38:44;68.93;;;15.07;;
51828;SDS011;37881;48.024;8.774;2022-11-20T00:41:13;52.75;;;20.08;;
51828;SDS011;37881;48.024;8.774;2022-11-20T00:43:41;51.35;;;14.43;;
51828;SDS011;37881;48.024;8.774;2022-11-20T00:46:09;54.53;;;14.18;;
51828;SDS011;37881;48.024;8.774;2022-11-20T00:48:39;105.25;;;16.15;;
51828;SDS011;37881;48.024;8.774;2022-11-20T00:51:06;64.13;;;14.33;;
51828;SDS011;37881;48.024;8.774;2022-11-20T00:53:32;85.88;;;13.60;;
51828;SDS011;37881;48.024;8.774;2022-11-20T00:56:00;48.67;;;11.98;;
51828;SDS011;37881;48.024;8.774;2022-11-20T00:58:37;45.60;;;11.98;;
51828;SDS011;37881;48.024;8.774;2022-11-20T01:03:37;46.88;;;13.48;;
51828;SDS011;37881;48.024;8.774;2022-11-20T01:06:07;32.97;;;9.77;;
51828;SDS011;37881;48.024;8.774;2022-11-20T01:08:35;30.55;;;8.57;;
51828;SDS011;37881;48.024;8.774;2022-11-20T01:11:04;31.92;;;8.43;;
51828;SDS011;37881;48.024;8.774;2022-11-20T01:13:33;59.38;;;9.68;;
51828;SDS011;37881;48.024;8.774;2022-11-20T01:18:41;17.60;;;7.90;;
51828;SDS011;37881;48.024;8.774;2022-11-20T01:21:13;19.67;;;7.72;;
51828;SDS011;37881;48.024;8.774;2022-11-20T01:23:42;15.90;;;7.15;;
51828;SDS011;37881;48.024;8.774;2022-11-20T01:26:11;15.73;;;7.43;;
51828;SDS011;37881;48.024;8.774;2022-11-20T01:28:40;19.33;;;8.30;;
51828;SDS011;37881;48.024;8.774;2022-11-20T01:31:15;16.42;;;6.32;;
51828;SDS011;37881;48.024;8.774;2022-11-20T01:33:45;13.05;;;6.05;;
51828;SDS011;37881;48.024;8.774;2022-11-20T01:36:13;11.52;;;5.38;;
51828;SDS011;37881;48.024;8.774;2022-11-20T01:38:41;18.10;;;8.15;;
51828;SDS011;37881;48.024;8.774;2022-11-20T01:41:09;17.45;;;8.45;;
51828;SDS011;37881;48.024;8.774;2022-11-20T01:43:37;12.65;;;5.78;;
51828;SDS011;37881;48.024;8.774;2022-11-20T01:46:14;12.77;;;5.70;;
51828;SDS011;37881;48.024;8.774;2022-11-20T01:49:03;10.93;;;5.55;;
51828;SDS011;37881;48.024;8.774;2022-11-20T01:51:39;12.50;;;5.43;;
51828;SDS011;37881;48.024;8.774;2022-11-20T01:54:15;21.07;;;9.57;;
51828;SDS011;37881;48.024;8.774;2022-11-20T01:56:45;19.02;;;8.48;;
51828;SDS011;37881;48.024;8.774;2022-11-20T01:59:17;13.55;;;5.80;;
51828;SDS011;37881;48.024;8.774;2022-11-20T02:01:46;10.30;;;5.18;;
51828;SDS011;37881;48.024;8.774;2022-11-20T02:04:13;11.88;;;5.18;;
51828;SDS011;37881;48.024;8.774;2022-11-20T02:07:15;10.33;;;5.43;;
51828;SDS011;37881;48.024;8.774;2022-11-20T02:09:34;11.35;;;5.43;;
51828;SDS011;37881;48.024;8.774;2022-11-20T02:12:01;11.43;;;5.43;;
51828;SDS011;37881;48.024;8.774;2022-11-20T02:14:29;9.63;;;5.10;;
51828;SDS011;37881;48.024;8.774;2022-11-20T02:16:56;11.82;;;5.22;;
51828;SDS011;37881;48.024;8.774;2022-11-20T02:19:24;10.47;;;5.10;;
51828;SDS011;37881;48.024;8.774;2022-11-20T02:24:33;9.05;;;4.55;;
51828;SDS011;37881;48.024;8.774;2022-11-20T02:27:06;10.20;;;5.18;;
51828;SDS011;37881;48.024;8.774;2022-11-20T02:32:27;11.37;;;5.57;;
51828;SDS011;37881;48.024;8.774;2022-11-20T02:34:53;8.73;;;5.03;;
51828;SDS011;37881;48.024;8.774;2022-11-20T02:37:21;10.45;;;5.07;;
51828;SDS011;37881;48.024;8.774;2022-11-20T02:39:48;10.43;;;5.07;;
51828;SDS011;37881;48.024;8.774;2022-11-20T02:42:17;11.52;;;5.38;;
51828;SDS011;37881;48.024;8.774;2022-11-20T02:44:44;11.73;;;4.67;;
51828;SDS011;37881;48.024;8.774;2022-11-20T02:47:11;10.70;;;5.10;;
51828;SDS011;37881;48.024;8.774;2022-11-20T02:49:37;10.63;;;4.70;;
51828;SDS011;37881;48.024;8.774;2022-11-20T02:52:04;9.40;;;4.57;;
51828;SDS011;37881;48.024;8.774;2022-11-20T02:54:31;9.90;;;4.78;;
51828;SDS011;37881;48.024;8.774;2022-11-20T02:56:58;16.87;;;7.77;;
51828;SDS011;37881;48.024;8.774;2022-11-20T02:59:24;11.45;;;5.40;;
51828;SDS011;37881;48.024;8.774;2022-11-20T03:01:51;11.07;;;5.70;;
51828;SDS011;37881;48.024;8.774;2022-11-20T03:04:18;10.05;;;5.22;;
51828;SDS011;37881;48.024;8.774;2022-11-20T03:06:44;10.88;;;5.43;;
51828;SDS011;37881;48.024;8.774;2022-11-20T03:09:11;8.97;;;5.03;;
51828;SDS011;37881;48.024;8.774;2022-11-20T03:11:38;9.07;;;4.65;;
51828;SDS011;37881;48.024;8.774;2022-11-20T03:14:05;10.45;;;4.55;;
51828;SDS011;37881;48.024;8.774;2022-11-20T03:16:32;9.20;;;4.70;;
51828;SDS011;37881;48.024;8.774;2022-11-20T03:18:59;10.43;;;5.20;;
51828;SDS011;37881;48.024;8.774;2022-11-20T03:21:26;10.70;;;5.30;;
51828;SDS011;37881;48.024;8.774;2022-11-20T03:23:53;8.18;;;4.15;;
51828;SDS011;37881;48.024;8.774;2022-11-20T03:26:21;9.35;;;4.65;;
51828;SDS011;37881;48.024;8.774;2022-11-20T03:28:51;9.95;;;4.63;;
51828;SDS011;37881;48.024;8.774;2022-11-20T03:31:20;9.43;;;4.68;;
51828;SDS011;37881;48.024;8.774;2022-11-20T03:33:49;8.60;;;4.23;;
51828;SDS011;37881;48.024;8.774;2022-11-20T03:36:17;9.07;;;4.32;;
51828;SDS011;37881;48.024;8.774;2022-11-20T03:38:44;7.82;;;3.67;;
51828;SDS011;37881;48.024;8.774;2022-11-20T03:41:13;7.60;;;3.97;;
51828;SDS011;37881;48.024;8.774;2022-11-20T03:43:50;7.32;;;3.70;;
51828;SDS011;37881;48.024;8.774;2022-11-20T03:46:22;7.07;;;3.37;;
51828;SDS011;37881;48.024;8.774;2022-11-20T03:48:50;8.20;;;3.70;;
51828;SDS011;37881;48.024;8.774;2022-11-20T03:51:21;7.30;;;3.15;;
51828;SDS011;37881;48.024;8.774;2022-11-20T03:53:53;6.75;;;3.17;;
51828;SDS011;37881;48.024;8.774;2022-11-20T03:56:25;8.07;;;2.80;;
51828;SDS011;37881;48.024;8.774;2022-11-20T03:58:53;5.97;;;2.90;;
51828;SDS011;37881;48.024;8.774;2022-11-20T04:01:21;6.22;;;2.63;;
51828;SDS011;37881;48.024;8.774;2022-11-20T04:03:51;8.55;;;4.00;;
51828;SDS011;37881;48.024;8.774;2022-11-20T04:06:20;7.60;;;3.58;;
51828;SDS011;37881;48.024;8.774;2022-11-20T04:08:55;7.82;;;4.20;;
51828;SDS011;37881;48.024;8.774;2022-11-20T04:11:25;8.83;;;3.60;;
51828;SDS011;37881;48.024;8.774;2022-11-20T04:13:57;8.50;;;3.47;;
51828;SDS011;37881;48.024;8.774;2022-11-20T04:16:25;7.10;;;3.20;;
51828;SDS011;37881;48.024;8.774;2022-11-20T04:18:55;5.93;;;2.85;;
51828;SDS011;37881;48.024;8.774;2022-11-20T04:21:23;6.35;;;3.00;;
51828;SDS011;37881;48.024;8.774;2022-11-20T04:23:51;5.83;;;2.40;;
51828;SDS011;37881;48.024;8.774;2022-11-20T04:26:22;5.53;;;2.17;;
51828;SDS011;37881;48.024;8.774;2022-11-20T04:28:50;4.85;;;2.40;;
51828;SDS011;37881;48.024;8.774;2022-11-20T04:31:20;4.50;;;2.20;;
51828;SDS011;37881;48.024;8.774;2022-11-20T04:33:49;5.32;;;2.10;;
51828;SDS011;37881;48.024;8.774;2022-11-20T04:36:17;4.60;;;2.27;;
51828;SDS011;37881;48.024;8.774;2022-11-20T04:38:46;6.55;;;2.20;;
51828;SDS011;37881;48.024;8.774;2022-11-20T04:41:22;7.18;;;3.55;;
51828;SDS011;37881;48.024;8.774;2022-11-20T04:43:51;7.20;;;3.10;;
51828;SDS011;37881;48.024;8.774;2022-11-20T04:46:20;8.35;;;3.95;;
51828;SDS011;37881;48.024;8.774;2022-11-20T04:48:47;6.60;;;3.33;;
51828;SDS011;37881;48.024;8.774;2022-11-20T04:51:14;7.00;;;3.50;;
51828;SDS011;37881;48.024;8.774;2022-11-20T04:53:41;6.93;;;3.22;;
51828;SDS011;37881;48.024;8.774;2022-11-20T04:56:08;6.53;;;3.10;;
51828;SDS011;37881;48.024;8.774;2022-11-20T04:58:37;8.05;;;3.95;;
51828;SDS011;37881;48.024;8.774;2022-11-20T05:01:05;7.77;;;3.60;;
51828;SDS011;37881;48.024;8.774;2022-11-20T05:03:43;6.88;;;3.42;;
51828;SDS011;37881;48.024;8.774;2022-11-20T05:06:11;7.65;;;3.70;;
51828;SDS011;37881;48.024;8.774;2022-11-20T05:08:40;7.25;;;3.42;;
51828;SDS011;37881;48.024;8.774;2022-11-20T05:11:08;8.10;;;3.70;;
51828;SDS011;37881;48.024;8.774;2022-11-20T05:13:37;7.87;;;3.57;;
51828;SDS011;37881;48.024;8.774;2022-11-20T05:16:06;10.20;;;4.07;;
51828;SDS011;37881;48.024;8.774;2022-11-20T05:18:34;8.27;;;3.78;;
51828;SDS011;37881;48.024;8.774;2022-11-20T05:21:02;6.50;;;3.38;;
51828;SDS011;37881;48.024;8.774;2022-11-20T05:23:29;7.63;;;3.65;;
51828;SDS011;37881;48.024;8.774;2022-11-20T05:25:56;6.90;;;3.43;;
51828;SDS011;37881;48.024;8.774;2022-11-20T05:28:25;8.27;;;3.17;;
51828;SDS011;37881;48.024;8.774;2022-11-20T05:30:54;6.15;;;3.17;;
51828;SDS011;37881;48.024;8.774;2022-11-20T05:33:20;7.30;;;3.20;;
51828;SDS011;37881;48.024;8.774;2022-11-20T05:35:47;9.57;;;4.45;;
51828;SDS011;37881;48.024;8.774;2022-11-20T05:38:14;6.23;;;3.13;;
51828;SDS011;37881;48.024;8.774;2022-11-20T05:40:42;12.63;;;7.32;;
51828;SDS011;37881;48.024;8.774;2022-11-20T05:43:09;10.98;;;5.82;;
51828;SDS011;37881;48.024;8.774;2022-11-20T05:45:35;10.38;;;5.03;;
51828;SDS011;37881;48.024;8.774;2022-11-20T05:48:02;7.95;;;4.00;;
51828;SDS011;37881;48.024;8.774;2022-11-20T05:50:29;19.00;;;8.20;;
51828;SDS011;37881;48.024;8.774;2022-11-20T05:52:59;7.25;;;3.70;;
51828;SDS011;37881;48.024;8.774;2022-11-20T05:55:26;7.90;;;3.88;;
51828;SDS011;37881;48.024;8.774;2022-11-20T05:57:54;9.65;;;4.38;;
51828;SDS011;37881;48.024;8.774;2022-11-20T06:00:21;7.40;;;3.70;;
51828;SDS011;37881;48.024;8.774;2022-11-20T06:02:48;8.27;;;3.90;;
51828;SDS011;37881;48.024;8.774;2022-11-20T06:05:15;9.35;;;4.07;;
51828;SDS011;37881;48.024;8.774;2022-11-20T06:07:42;7.55;;;3.97;;
51828;SDS011;37881;48.024;8.774;2022-11-20T06:10:09;8.82;;;3.90;;
51828;SDS011;37881;48.024;8.774;2022-11-20T06:12:36;8.88;;;3.90;;
51828;SDS011;37881;48.024;8.774;2022-11-20T06:15:03;8.13;;;4.30;;
51828;SDS011;37881;48.024;8.774;2022-11-20T06:17:31;10.27;;;4.10;;
51828;SDS011;37881;48.024;8.774;2022-11-20T06:19:57;8.27;;;4.10;;
51828;SDS011;37881;48.024;8.774;2022-11-20T06:22:24;9.13;;;3.95;;
51828;SDS011;37881;48.024;8.774;2022-11-20T06:24:51;10.68;;;4.55;;
51828;SDS011;37881;48.024;8.774;2022-11-20T06:27:17;10.13;;;4.37;;
51828;SDS011;37881;48.024;8.774;2022-11-20T06:29:44;10.80;;;5.10;;
51828;SDS011;37881;48.024;8.774;2022-11-20T06:32:11;11.93;;;5.82;;
51828;SDS011;37881;48.024;8.774;2022-11-20T06:34:38;11.68;;;4.90;;
51828;SDS011;37881;48.024;8.774;2022-11-20T06:37:04;8.10;;;4.00;;
51828;SDS011;37881;48.024;8.774;2022-11-20T06:39:31;8.10;;;3.70;;
51828;SDS011;37881;48.024;8.774;2022-11-20T06:41:58;7.63;;;3.80;;
51828;SDS011;37881;48.024;8.774;2022-11-20T06:44:25;10.68;;;4.40;;
51828;SDS011;37881;48.024;8.774;2022-11-20T06:46:52;8.50;;;4.28;;
51828;SDS011;37881;48.024;8.774;2022-11-20T06:49:18;8.20;;;3.10;;
51828;SDS011;37881;48.024;8.774;2022-11-20T06:51:45;6.83;;;3.27;;
51828;SDS011;37881;48.024;8.774;2022-11-20T06:54:12;9.40;;;3.72;;
51828;SDS011;37881;48.024;8.774;2022-11-20T06:56:39;12.15;;;4.40;;
51828;SDS011;37881;48.024;8.774;2022-11-20T06:59:06;12.45;;;5.50;;
51828;SDS011;37881;48.024;8.774;2022-11-20T07:01:33;11.65;;;5.30;;
51828;SDS011;37881;48.024;8.774;2022-11-20T07:04:01;10.67;;;5.10;;
51828;SDS011;37881;48.024;8.774;2022-11-20T07:06:29;9.88;;;4.43;;
51828;SDS011;37881;48.024;8.774;2022-11-20T07:08:56;11.32;;;5.38;;
51828;SDS011;37881;48.024;8.774;2022-11-20T07:11:23;10.48;;;4.75;;
51828;SDS011;37881;48.024;8.774;2022-11-20T07:13:50;10.32;;;4.90;;
51828;SDS011;37881;48.024;8.774;2022-11-20T07:16:17;10.33;;;5.00;;
51828;SDS011;37881;48.024;8.774;2022-11-20T07:18:44;13.65;;;6.40;;
51828;SDS011;37881;48.024;8.774;2022-11-20T07:21:16;8.95;;;4.82;;
51828;SDS011;37881;48.024;8.774;2022-11-20T07:23:43;8.00;;;4.03;;
51828;SDS011;37881;48.024;8.774;2022-11-20T07:26:10;8.35;;;4.05;;
51828;SDS011;37881;48.024;8.774;2022-11-20T07:28:37;9.93;;;4.93;;
51828;SDS011;37881;48.024;8.774;2022-11-20T07:31:04;13.90;;;7.05;;
51828;SDS011;37881;48.024;8.774;2022-11-20T07:33:33;11.73;;;6.07;;
51828;SDS011;37881;48.024;8.774;2022-11-20T07:35:59;9.88;;;5.10;;
51828;SDS011;37881;48.024;8.774;2022-11-20T07:38:26;10.65;;;5.10;;
51828;SDS011;37881;48.024;8.774;2022-11-20T07:40:57;11.53;;;6.00;;
51828;SDS011;37881;48.024;8.774;2022-11-20T07:43:24;12.63;;;6.53;;
51828;SDS011;37881;48.024;8.774;2022-11-20T07:45:51;12.05;;;6.28;;
51828;SDS011;37881;48.024;8.774;2022-11-20T07:48:18;12.38;;;6.32;;
51828;SDS011;37881;48.024;8.774;2022-11-20T07:50:45;12.35;;;6.15;;
51828;SDS011;37881;48.024;8.774;2022-11-20T07:53:11;11.40;;;6.27;;
51828;SDS011;37881;48.024;8.774;2022-11-20T07:55:40;10.55;;;5.50;;
51828;SDS011;37881;48.024;8.774;2022-11-20T07:58:06;9.55;;;5.18;;
51828;SDS011;37881;48.024;8.774;2022-11-20T08:00:33;10.13;;;5.65;;
51828;SDS011;37881;48.024;8.774;2022-11-20T08:03:02;12.32;;;6.25;;
51828;SDS011;37881;48.024;8.774;2022-11-20T08:05:32;11.60;;;6.00;;
51828;SDS011;37881;48.024;8.774;2022-11-20T08:07:59;13.23;;;6.85;;
51828;SDS011;37881;48.024;8.774;2022-11-20T08:10:26;15.30;;;8.00;;
51828;SDS011;37881;48.024;8.774;2022-11-20T08:12:53;16.80;;;9.02;;
51828;SDS011;37881;48.024;8.774;2022-11-20T08:15:39;16.23;;;8.57;;
51828;SDS011;37881;48.024;8.774;2022-11-20T08:18:07;15.53;;;8.27;;
51828;SDS011;37881;48.024;8.774;2022-11-20T08:20:57;31.58;;;9.35;;
51828;SDS011;37881;48.024;8.774;2022-11-20T08:23:23;16.70;;;8.30;;
51828;SDS011;37881;48.024;8.774;2022-11-20T08:25:50;24.13;;;11.27;;
51828;SDS011;37881;48.024;8.774;2022-11-20T08:28:17;37.38;;;16.00;;
51828;SDS011;37881;48.024;8.774;2022-11-20T08:30:47;108.63;;;42.40;;
51828;SDS011;37881;48.024;8.774;2022-11-20T08:33:16;64.57;;;27.70;;
51828;SDS011;37881;48.024;8.774;2022-11-20T08:35:43;41.47;;;18.65;;
51828;SDS011;37881;48.024;8.774;2022-11-20T08:38:10;15.50;;;8.70;;
51828;SDS011;37881;48.024;8.774;2022-11-20T08:40:37;32.83;;;16.90;;
51828;SDS011;37881;48.024;8.774;2022-11-20T08:43:03;11.10;;;6.47;;
51828;SDS011;37881;48.024;8.774;2022-11-20T08:45:30;13.55;;;7.55;;
51828;SDS011;37881;48.024;8.774;2022-11-20T08:48:03;9.32;;;5.60;;
51828;SDS011;37881;48.024;8.774;2022-11-20T08:50:30;9.60;;;5.72;;
51828;SDS011;37881;48.024;8.774;2022-11-20T08:53:05;6.90;;;3.88;;
51828;SDS011;37881;48.024;8.774;2022-11-20T08:55:32;5.40;;;3.30;;
51828;SDS011;37881;48.024;8.774;2022-11-20T08:58:04;5.90;;;3.67;;
51828;SDS011;37881;48.024;8.774;2022-11-20T09:00:32;4.50;;;2.50;;
51828;SDS011;37881;48.024;8.774;2022-11-20T09:03:00;4.18;;;2.50;;
51828;SDS011;37881;48.024;8.774;2022-11-20T09:05:27;5.47;;;2.50;;
51828;SDS011;37881;48.024;8.774;2022-11-20T09:07:57;5.83;;;2.60;;
51828;SDS011;37881;48.024;8.774;2022-11-20T09:10:27;3.83;;;2.22;;
51828;SDS011;37881;48.024;8.774;2022-11-20T09:12:55;5.63;;;2.80;;
51828;SDS011;37881;48.024;8.774;2022-11-20T09:15:22;6.85;;;4.32;;
51828;SDS011;37881;48.024;8.774;2022-11-20T09:17:57;7.13;;;4.00;;
51828;SDS011;37881;48.024;8.774;2022-11-20T09:20:28;6.57;;;3.47;;
51828;SDS011;37881;48.024;8.774;2022-11-20T09:22:56;6.32;;;3.15;;
51828;SDS011;37881;48.024;8.774;2022-11-20T09:25:23;5.30;;;2.80;;
51828;SDS011;37881;48.024;8.774;2022-11-20T09:27:56;4.93;;;2.90;;
51828;SDS011;37881;48.024;8.774;2022-11-20T09:30:24;4.93;;;2.42;;
51828;SDS011;37881;48.024;8.774;2022-11-20T09:32:52;4.40;;;2.27;;
51828;SDS011;37881;48.024;8.774;2022-11-20T09:35:18;4.88;;;2.17;;
51828;SDS011;37881;48.024;8.774;2022-11-20T09:37:45;4.28;;;2.22;;
51828;SDS011;37881;48.024;8.774;2022-11-20T09:54:18;3.13;;;1.40;;
51828;SDS011;37881;48.024;8.774;2022-11-20T09:56:50;5.55;;;3.20;;
51828;SDS011;37881;48.024;8.774;2022-11-20T10:04:49;2.85;;;1.50;;
51828;SDS011;37881;48.024;8.774;2022-11-20T10:07:23;4.10;;;1.92;;
51828;SDS011;37881;48.024;8.774;2022-11-20T10:10:28;10.60;;;4.20;;
51828;SDS011;37881;48.024;8.774;2022-11-20T10:19:03;14.02;;;5.72;;
51828;SDS011;37881;48.024;8.774;2022-11-20T10:24:39;5.53;;;2.42;;
51828;SDS011;37881;48.024;8.774;2022-11-20T10:30:12;4.03;;;1.70;;
51828;SDS011;37881;48.024;8.774;2022-11-20T10:32:42;2.70;;;1.40;;
51828;SDS011;37881;48.024;8.774;2022-11-20T10:35:20;2.92;;;1.50;;
51828;SDS011;37881;48.024;8.774;2022-11-20T10:37:50;3.83;;;1.73;;
51828;SDS011;37881;48.024;8.774;2022-11-20T10:43:17;3.63;;;1.60;;
51828;SDS011;37881;48.024;8.774;2022-11-20T10:45:49;3.00;;;1.80;;
51828;SDS011;37881;48.024;8.774;2022-11-20T10:48:27;4.35;;;1.95;;
51828;SDS011;37881;48.024;8.774;2022-11-20T10:59:12;2.72;;;1.42;;
51828;SDS011;37881;48.024;8.774;2022-11-20T11:02:01;6.72;;;2.95;;
51828;SDS011;37881;48.024;8.774;2022-11-20T11:04:42;5.95;;;2.50;;
51828;SDS011;37881;48.024;8.774;2022-11-20T11:07:13;6.17;;;3.80;;
51828;SDS011;37881;48.024;8.774;2022-11-20T11:09:48;3.85;;;2.20;;
51828;SDS011;37881;48.024;8.774;2022-11-20T11:12:17;4.15;;;2.00;;
51828;SDS011;37881;48.024;8.774;2022-11-20T11:14:49;4.25;;;1.80;;
51828;SDS011;37881;48.024;8.774;2022-11-20T11:17:22;3.78;;;1.90;;
51828;SDS011;37881;48.024;8.774;2022-11-20T11:20:04;2.97;;;1.50;;
51828;SDS011;37881;48.024;8.774;2022-11-20T11:22:32;4.78;;;2.10;;
51828;SDS011;37881;48.024;8.774;2022-11-20T11:25:01;3.60;;;1.88;;
51828;SDS011;37881;48.024;8.774;2022-11-20T11:27:28;3.67;;;1.80;;
51828;SDS011;37881;48.024;8.774;2022-11-20T11:30:14;3.40;;;1.77;;
51828;SDS011;37881;48.024;8.774;2022-11-20T11:32:43;3.93;;;2.10;;
51828;SDS011;37881;48.024;8.774;2022-11-20T11:35:22;5.43;;;1.90;;
51828;SDS011;37881;48.024;8.774;2022-11-20T11:37:54;3.22;;;1.65;;
51828;SDS011;37881;48.024;8.774;2022-11-20T11:40:29;3.00;;;1.45;;
51828;SDS011;37881;48.024;8.774;2022-11-20T11:42:59;2.60;;;1.50;;
51828;SDS011;37881;48.024;8.774;2022-11-20T11:45:30;4.53;;;2.43;;
51828;SDS011;37881;48.024;8.774;2022-11-20T11:47:57;3.65;;;1.80;;
51828;SDS011;37881;48.024;8.774;2022-11-20T11:50:27;4.43;;;2.20;;
51828;SDS011;37881;48.024;8.774;2022-11-20T12:01:07;2.70;;;1.40;;
51828;SDS011;37881;48.024;8.774;2022-11-20T12:03:36;2.90;;;1.60;;
51828;SDS011;37881;48.024;8.774;2022-11-20T12:06:05;3.38;;;1.40;;
51828;SDS011;37881;48.024;8.774;2022-11-20T12:09:01;6.10;;;3.03;;
51828;SDS011;37881;48.024;8.774;2022-11-20T12:16:53;3.08;;;1.35;;
51828;SDS011;37881;48.024;8.774;2022-11-20T12:19:23;3.03;;;1.42;;
51828;SDS011;37881;48.024;8.774;2022-11-20T12:24:53;6.50;;;3.70;;
51828;SDS011;37881;48.024;8.774;2022-11-20T12:27:43;3.55;;;1.95;;
51828;SDS011;37881;48.024;8.774;2022-11-20T12:30:25;3.10;;;1.98;;
51828;SDS011;37881;48.024;8.774;2022-11-20T12:38:50;2.73;;;1.60;;
51828;SDS011;37881;48.024;8.774;2022-11-20T12:44:44;3.45;;;2.10;;
51828;SDS011;37881;48.024;8.774;2022-11-20T12:47:47;4.47;;;2.60;;
51828;SDS011;37881;48.024;8.774;2022-11-20T13:02:05;3.05;;;1.77;;
51828;SDS011;37881;48.024;8.774;2022-11-20T13:04:49;6.47;;;2.58;;
51828;SDS011;37881;48.024;8.774;2022-11-20T13:07:59;4.27;;;1.90;;
51828;SDS011;37881;48.024;8.774;2022-11-20T13:10:41;2.70;;;1.60;;
51828;SDS011;37881;48.024;8.774;2022-11-20T13:13:34;3.22;;;1.90;;
51828;SDS011;37881;48.024;8.774;2022-11-20T13:16:22;3.33;;;1.52;;
51828;SDS011;37881;48.024;8.774;2022-11-20T13:19:11;2.90;;;1.50;;
51828;SDS011;37881;48.024;8.774;2022-11-20T13:21:48;4.40;;;1.60;;
51828;SDS011;37881;48.024;8.774;2022-11-20T13:24:20;3.30;;;1.77;;
51828;SDS011;37881;48.024;8.774;2022-11-20T13:26:59;3.40;;;1.80;;
51828;SDS011;37881;48.024;8.774;2022-11-20T13:29:45;3.72;;;1.20;;
51828;SDS011;37881;48.024;8.774;2022-11-20T13:34:39;7.60;;;3.20;;
51828;SDS011;37881;48.024;8.774;2022-11-20T13:37:26;3.67;;;1.75;;
51828;SDS011;37881;48.024;8.774;2022-11-20T13:40:05;5.47;;;3.40;;
51828;SDS011;37881;48.024;8.774;2022-11-20T13:42:39;4.35;;;2.20;;
51828;SDS011;37881;48.024;8.774;2022-11-20T13:45:22;6.85;;;3.08;;
51828;SDS011;37881;48.024;8.774;2022-11-20T13:47:52;3.80;;;2.00;;
51828;SDS011;37881;48.024;8.774;2022-11-20T13:50:21;4.00;;;1.80;;
51828;SDS011;37881;48.024;8.774;2022-11-20T14:01:25;4.10;;;1.93;;
51828;SDS011;37881;48.024;8.774;2022-11-20T14:03:57;5.60;;;2.67;;
51828;SDS011;37881;48.024;8.774;2022-11-20T14:06:32;4.82;;;2.00;;
51828;SDS011;37881;48.024;8.774;2022-11-20T14:09:05;2.97;;;1.42;;
51828;SDS011;37881;48.024;8.774;2022-11-20T14:11:52;2.92;;;1.50;;
51828;SDS011;37881;48.024;8.774;2022-11-20T14:14:20;3.03;;;1.33;;
51828;SDS011;37881;48.024;8.774;2022-11-20T14:16:49;4.18;;;1.90;;
51828;SDS011;37881;48.024;8.774;2022-11-20T14:24:43;3.15;;;1.80;;
51828;SDS011;37881;48.024;8.774;2022-11-20T14:27:12;3.90;;;2.03;;
51828;SDS011;37881;48.024;8.774;2022-11-20T14:29:44;4.45;;;1.90;;
51828;SDS011;37881;48.024;8.774;2022-11-20T14:32:14;3.35;;;1.92;;
51828;SDS011;37881;48.024;8.774;2022-11-20T14:34:44;3.17;;;1.60;;
51828;SDS011;37881;48.024;8.774;2022-11-20T14:37:13;2.83;;;1.63;;
51828;SDS011;37881;48.024;8.774;2022-11-20T14:39:50;4.43;;;1.90;;
51828;SDS011;37881;48.024;8.774;2022-11-20T14:42:25;6.25;;;1.80;;
51828;SDS011;37881;48.024;8.774;2022-11-20T14:44:57;3.33;;;1.90;;
51828;SDS011;37881;48.024;8.774;2022-11-20T14:47:26;5.38;;;2.58;;
51828;SDS011;37881;48.024;8.774;2022-11-20T14:49:55;4.28;;;2.50;;
51828;SDS011;37881;48.024;8.774;2022-11-20T14:52:25;4.40;;;2.63;;
51828;SDS011;37881;48.024;8.774;2022-11-20T14:54:55;4.70;;;2.40;;
51828;SDS011;37881;48.024;8.774;2022-11-20T14:57:26;4.03;;;1.80;;
51828;SDS011;37881;48.024;8.774;2022-11-20T15:02:53;3.88;;;2.08;;
51828;SDS011;37881;48.024;8.774;2022-11-20T15:05:21;2.50;;;1.20;;
51828;SDS011;37881;48.024;8.774;2022-11-20T15:07:51;3.92;;;1.95;;
51828;SDS011;37881;48.024;8.774;2022-11-20T15:10:32;4.53;;;2.03;;
51828;SDS011;37881;48.024;8.774;2022-11-20T15:13:01;3.50;;;1.90;;
51828;SDS011;37881;48.024;8.774;2022-11-20T15:15:48;4.60;;;2.22;;
51828;SDS011;37881;48.024;8.774;2022-11-20T15:18:39;4.10;;;2.20;;
51828;SDS011;37881;48.024;8.774;2022-11-20T15:21:12;3.40;;;1.83;;
51828;SDS011;37881;48.024;8.774;2022-11-20T15:23:40;2.78;;;1.40;;
51828;SDS011;37881;48.024;8.774;2022-11-20T15:26:08;3.67;;;1.70;;
51828;SDS011;37881;48.024;8.774;2022-11-20T15:28:44;5.65;;;2.42;;
51828;SDS011;37881;48.024;8.774;2022-11-20T15:31:14;5.10;;;2.10;;
51828;SDS011;37881;48.024;8.774;2022-11-20T15:33:42;4.28;;;1.70;;
51828;SDS011;37881;48.024;8.774;2022-11-20T15:36:09;4.72;;;2.17;;
51828;SDS011;37881;48.024;8.774;2022-11-20T15:38:36;7.05;;;2.50;;
51828;SDS011;37881;48.024;8.774;2022-11-20T15:41:03;8.05;;;2.85;;
51828;SDS011;37881;48.024;8.774;2022-11-20T15:43:30;8.00;;;2.87;;
51828;SDS011;37881;48.024;8.774;2022-11-20T15:45:59;4.25;;;2.20;;
51828;SDS011;37881;48.024;8.774;2022-11-20T15:49:01;4.20;;;2.60;;
51828;SDS011;37881;48.024;8.774;2022-11-20T15:51:26;6.40;;;2.40;;
51828;SDS011;37881;48.024;8.774;2022-11-20T15:53:54;5.43;;;2.30;;
51828;SDS011;37881;48.024;8.774;2022-11-20T15:56:22;4.83;;;2.17;;
51828;SDS011;37881;48.024;8.774;2022-11-20T15:58:49;3.95;;;2.20;;
51828;SDS011;37881;48.024;8.774;2022-11-20T16:01:17;3.83;;;2.00;;
51828;SDS011;37881;48.024;8.774;2022-11-20T16:03:46;4.93;;;2.17;;
51828;SDS011;37881;48.024;8.774;2022-11-20T16:06:13;6.65;;;3.42;;
51828;SDS011;37881;48.024;8.774;2022-11-20T16:08:39;6.60;;;3.53;;
51828;SDS011;37881;48.024;8.774;2022-11-20T16:11:06;4.28;;;2.10;;
51828;SDS011;37881;48.024;8.774;2022-11-20T16:13:33;6.53;;;2.88;;
51828;SDS011;37881;48.024;8.774;2022-11-20T16:16:28;10.25;;;4.38;;
51828;SDS011;37881;48.024;8.774;2022-11-20T16:18:57;7.18;;;3.80;;
51828;SDS011;37881;48.024;8.774;2022-11-20T16:21:24;7.23;;;3.07;;
51828;SDS011;37881;48.024;8.774;2022-11-20T16:23:57;12.48;;;5.93;;
51828;SDS011;37881;48.024;8.774;2022-11-20T16:26:26;11.15;;;5.97;;
51828;SDS011;37881;48.024;8.774;2022-11-20T16:28:53;8.07;;;4.00;;
51828;SDS011;37881;48.024;8.774;2022-11-20T16:31:20;8.07;;;4.53;;
51828;SDS011;37881;48.024;8.774;2022-11-20T16:33:51;6.67;;;3.80;;
51828;SDS011;37881;48.024;8.774;2022-11-20T16:36:19;6.20;;;3.10;;
51828;SDS011;37881;48.024;8.774;2022-11-20T16:38:51;7.03;;;3.75;;
51828;SDS011;37881;48.024;8.774;2022-11-20T16:41:18;8.05;;;3.78;;
51828;SDS011;37881;48.024;8.774;2022-11-20T16:43:45;9.05;;;4.80;;
51828;SDS011;37881;48.024;8.774;2022-11-20T16:46:13;10.83;;;5.23;;
51828;SDS011;37881;48.024;8.774;2022-11-20T16:48:40;9.40;;;4.57;;
51828;SDS011;37881;48.024;8.774;2022-11-20T16:51:08;5.93;;;3.25;;